Flight Track Log - Related Links

Times and Time Zones

All times are in EDT time to prevent confusion due to time zone crossing. See the EJA929 flight status page for this flight to view local times or setup timezone preferences in your user account.

Time Position Orientation Groundspeed Altitude Reporting Facility
EDT Latitude Longitude Course Direction KTS MPH feet Rate Location/Type
Mon 04:28:06 PM 35.2900 -120.7408 303° West 234 269 6,200  Level Los Angeles Center
Mon 04:29:09 PM 35.2636 -120.7881 236° Southwest 220 253 7,000 384 Climbing Los Angeles Center
Mon 04:30:11 PM 35.2081 -120.7397 145° Southeast 243 280 7,000  Level Los Angeles Center
Mon 04:31:12 PM 35.1428 -120.6764 142° Southeast 271 312 7,000  Level Los Angeles Center
Mon 04:32:13 PM 35.0794 -120.6122 140° Southeast 278 320 7,000  Level Los Angeles Center
Mon 04:33:17 PM 35.0275 -120.5639 143° Southeast 275 316 7,000  Level Los Angeles Center
Mon 04:34:19 PM 34.9569 -120.4969 142° Southeast 269 310 7,000  Level Los Angeles Center
Mon 04:35:28 PM 34.8872 -120.4297 142° Southeast 270 311 7,000  Level Los Angeles Center
Mon 04:36:23 PM 34.8356 -120.3806 142° Southeast 268 308 7,000  Level Los Angeles Center
Mon 04:37:23 PM 34.7733 -120.3219 142° Southeast 269 310 7,000  Level Los Angeles Center
Mon 04:38:24 PM 34.7161 -120.2669 142° Southeast 269 310 7,000  Level Los Angeles Center
Mon 04:39:25 PM 34.6536 -120.2086 142° Southeast 269 310 7,000  Level Los Angeles Center
Mon 04:40:32 PM 34.5925 -120.1472 140° Southeast 267 307 7,000  Level Los Angeles Center
Mon 04:41:21 PM 34.5397 -120.1014 144° Southeast 268 308 7,000 -273 Level Los Angeles Center
Mon 04:42:22 PM 34.4822 -120.0469 142° Southeast 268 308 6,500 -942 Descending Los Angeles Center
Mon 04:43:22 PM 34.4203 -119.9911 143° Southeast 264 304 5,100 -744 Descending Los Angeles Center
Mon 04:44:23 PM 34.3731 -119.9439 140° Southeast 233 268 5,000 -49 Descending Los Angeles Center
Mon 04:45:24 PM 34.3419 -119.8808 121° Southeast 223 257 5,000 -49 Level Los Angeles Center
Mon 04:46:25 PM 34.3317 -119.8061 99° East 217 250 4,900 -443 Descending Los Angeles Center
Mon 04:47:26 PM 34.3494 -119.7403 72° East 213 245 4,100 -885 Descending Los Angeles Center
Mon 04:48:27 PM 34.3831 -119.6878 52° Northeast 210 242 3,100 -891 Descending Los Angeles Center
Mon 04:49:34 PM 34.3822 -119.7506 269° West 189 217 2,200 -891 Descending Los Angeles Center
Mon 04:50:35 PM 34.4022 -119.7833 306° West 145 167 1,200 -738 Descending Los Angeles Center
Mon 04:51:36 PM 34.4283 -119.8033 328° Northwest 131 151 700 -423 Descending Los Angeles Center
Mon 04:52:57 PM 34.4358 -119.8542 280° West 137 158 200 -370 Descending Los Angeles Center

Login

Don't have an account? Register now (free) for customized features, flight alerts, and more!